Time;durP1;ratioP1;P1;durP2;ratioP2;P2;SDS_P1;SDS_P2;PMS_P1;PMS_P2;Temp;Humidity;BMP_temperature;BMP_pressure;BME280_temperature;BME280_humidity;BME280_pressure;Samples;Min_cycle;Max_cycle;Signal;HPM_P1;HPM_P2
2022/12/12 00:01:21;;;;;;;58.58;25.92;;;0.80;99.90;;;;;;4967256;28;20030;-80
2022/12/12 00:03:49;;;;;;;62.83;25.58;;;0.80;99.90;;;;;;4965254;28;20118;-80
2022/12/12 00:06:15;;;;;;;30.85;16.08;;;0.80;99.90;;;;;;4955877;28;20064;-80
2022/12/12 00:08:40;;;;;;;42.60;19.58;;;0.80;99.90;;;;;;4973653;28;20495;-80
2022/12/12 00:11:06;;;;;;;33.70;17.00;;;0.80;99.90;;;;;;4969828;28;20082;-80
2022/12/12 00:13:32;;;;;;;27.27;14.18;;;0.80;99.90;;;;;;4970902;28;20057;-80
2022/12/12 00:15:57;;;;;;;37.50;18.02;;;0.80;99.90;;;;;;4954340;28;20027;-80
2022/12/12 00:18:23;;;;;;;32.60;15.70;;;0.80;99.90;;;;;;4970275;28;20050;-80
2022/12/12 00:20:52;;;;;;;26.33;14.45;;;0.90;99.90;;;;;;4965593;28;20042;-80
2022/12/12 00:23:18;;;;;;;26.23;13.05;;;0.80;99.90;;;;;;4954737;28;20058;-79
2022/12/12 00:25:44;;;;;;;24.63;12.95;;;0.90;99.90;;;;;;4968505;28;22184;-80
2022/12/12 00:28:09;;;;;;;48.72;19.92;;;0.90;99.90;;;;;;4952695;28;20117;-80
2022/12/12 00:30:35;;;;;;;31.40;15.52;;;0.90;99.90;;;;;;4953397;28;20038;-80
2022/12/12 00:33:00;;;;;;;48.97;22.88;;;1.00;99.90;;;;;;4955136;28;20060;-79
2022/12/12 00:35:26;;;;;;;48.38;20.95;;;0.90;99.90;;;;;;4982363;28;20030;-78
2022/12/12 00:37:51;;;;;;;55.13;24.80;;;0.80;99.90;;;;;;4971424;28;20585;-78
2022/12/12 00:40:17;;;;;;;28.60;14.80;;;0.80;99.90;;;;;;4950664;28;20513;-78
2022/12/12 00:42:42;;;;;;;52.33;24.00;;;0.80;99.90;;;;;;4955772;28;20038;-79
2022/12/12 00:45:08;;;;;;;25.33;13.25;;;0.90;99.90;;;;;;4955271;28;20121;-78
2022/12/12 00:47:34;;;;;;;38.28;17.88;;;0.90;99.90;;;;;;4969023;28;20049;-78
2022/12/12 00:49:59;;;;;;;32.10;15.48;;;0.90;99.90;;;;;;4968281;28;20030;-78
2022/12/12 00:52:25;;;;;;;30.05;14.77;;;0.80;99.90;;;;;;4969502;28;20035;-78
2022/12/12 00:54:50;;;;;;;28.33;13.15;;;0.90;99.90;;;;;;4983684;28;20031;-77
2022/12/12 00:57:16;;;;;;;56.63;25.35;;;0.80;99.90;;;;;;4955543;28;20363;-78
2022/12/12 00:59:41;;;;;;;29.00;14.20;;;0.80;99.90;;;;;;4968864;28;21936;-78
2022/12/12 01:02:08;;;;;;;24.73;12.77;;;0.80;99.90;;;;;;4968406;28;20023;-79
2022/12/12 01:04:34;;;;;;;30.17;13.93;;;0.80;99.90;;;;;;4983629;28;20026;-78
2022/12/12 01:07:00;;;;;;;35.20;16.70;;;0.90;99.90;;;;;;4969235;28;20085;-79
2022/12/12 01:09:25;;;;;;;29.70;14.85;;;0.90;99.90;;;;;;4969635;28;20453;-79
2022/12/12 01:11:51;;;;;;;31.98;15.82;;;0.90;99.90;;;;;;4984011;28;20035;-78
2022/12/12 01:14:16;;;;;;;35.55;17.23;;;0.80;99.90;;;;;;4970736;28;20425;-79
2022/12/12 01:16:42;;;;;;;40.55;19.17;;;0.90;99.90;;;;;;4968932;28;20443;-77
2022/12/12 01:19:07;;;;;;;40.42;18.63;;;0.90;99.90;;;;;;4969430;28;20053;-79
2022/12/12 01:21:33;;;;;;;47.40;22.55;;;1.10;99.90;;;;;;4969303;28;20058;-79
2022/12/12 01:24:01;;;;;;;35.30;16.63;;;1.00;99.90;;;;;;4953144;28;20026;-80
2022/12/12 01:26:26;;;;;;;52.00;23.13;;;1.00;99.90;;;;;;4940066;28;20030;-80
2022/12/12 01:28:52;;;;;;;28.33;14.00;;;0.90;99.90;;;;;;4939012;28;20408;-79
2022/12/12 01:31:17;;;;;;;44.60;19.27;;;0.90;99.90;;;;;;4957887;28;20045;-79
2022/12/12 01:33:46;;;;;;;38.75;17.50;;;0.80;99.90;;;;;;4969937;28;20064;-80
2022/12/12 01:36:16;;;;;;;44.83;18.60;;;0.80;99.90;;;;;;4973225;28;20367;-79
2022/12/12 01:38:45;;;;;;;34.30;16.67;;;0.80;99.90;;;;;;4965672;28;20118;-79
2022/12/12 01:41:11;;;;;;;29.17;14.45;;;0.80;99.90;;;;;;4934118;28;20050;-79
2022/12/12 01:43:37;;;;;;;55.53;24.55;;;0.80;99.90;;;;;;4985331;28;20061;-79
2022/12/12 01:46:02;;;;;;;47.58;23.45;;;0.80;99.90;;;;;;4961624;28;20049;-79
2022/12/12 01:48:33;;;;;;;57.83;24.23;;;0.80;99.90;;;;;;4991060;28;20026;-79
2022/12/12 01:50:59;;;;;;;55.20;24.27;;;0.80;99.90;;;;;;4973616;28;20035;-79
2022/12/12 01:53:25;;;;;;;37.28;19.35;;;0.80;99.90;;;;;;4953886;28;20033;-80
2022/12/12 01:55:50;;;;;;;55.35;23.02;;;0.80;99.90;;;;;;4947092;28;20022;-79
2022/12/12 01:58:16;;;;;;;33.50;16.75;;;0.80;99.90;;;;;;4971976;28;20117;-79
2022/12/12 02:00:42;;;;;;;39.72;18.45;;;0.80;99.90;;;;;;4987081;28;20071;-79
2022/12/12 02:03:07;;;;;;;57.58;23.92;;;0.80;99.90;;;;;;4944377;28;20073;-79
2022/12/12 02:06:03;;;;;;;50.20;21.67;;;0.80;99.90;;;;;;4975728;28;20037;-79
2022/12/12 02:08:29;;;;;;;53.20;24.53;;;0.80;99.90;;;;;;4964382;28;20124;-79
2022/12/12 02:10:54;;;;;;;37.10;17.17;;;0.80;99.90;;;;;;4975801;28;20125;-80
2022/12/12 02:13:24;;;;;;;42.13;19.33;;;0.80;99.90;;;;;;4978332;28;20080;-79
2022/12/12 02:16:02;;;;;;;34.92;15.77;;;0.90;99.90;;;;;;4973904;28;20034;-79
2022/12/12 02:18:37;;;;;;;33.15;15.00;;;0.90;99.90;;;;;;4987974;28;20030;-79
2022/12/12 02:21:49;;;;;;;49.50;23.35;;;0.80;99.90;;;;;;4961540;28;20423;-79
2022/12/12 02:24:38;;;;;;;53.83;23.55;;;0.80;99.90;;;;;;4960080;28;20057;-78
2022/12/12 02:27:22;;;;;;;25.80;12.68;;;0.70;99.90;;;;;;4987116;28;20505;-78
2022/12/12 02:30:08;;;;;;;31.30;15.57;;;0.80;99.90;;;;;;4975523;28;20031;-78
2022/12/12 02:32:36;;;;;;;44.67;19.67;;;0.80;99.90;;;;;;4973575;28;20494;-78
2022/12/12 02:35:18;;;;;;;36.78;16.10;;;0.80;99.90;;;;;;4991537;28;20032;-78
2022/12/12 02:38:12;;;;;;;59.85;24.42;;;0.90;99.90;;;;;;4975542;28;20061;-79
2022/12/12 02:40:39;;;;;;;33.53;15.88;;;0.80;99.90;;;;;;4967030;28;20125;-78
2022/12/12 02:43:18;;;;;;;43.45;19.83;;;0.80;99.90;;;;;;4995133;28;20036;-78
2022/12/12 02:45:48;;;;;;;41.55;19.58;;;0.80;99.90;;;;;;4973807;28;20482;-79
2022/12/12 02:48:24;;;;;;;27.48;13.50;;;1.00;99.90;;;;;;4975422;28;20037;-78
2022/12/12 02:50:50;;;;;;;46.33;19.42;;;0.90;99.90;;;;;;4957012;28;20156;-79
2022/12/12 02:53:17;;;;;;;47.72;21.17;;;0.90;99.90;;;;;;4972574;28;20038;-78
2022/12/12 02:55:43;;;;;;;34.10;14.93;;;0.90;99.90;;;;;;4959996;28;20042;-79
2022/12/12 02:58:09;;;;;;;29.85;14.50;;;0.90;99.90;;;;;;4972915;28;20508;-78
2022/12/12 03:00:39;;;;;;;51.72;23.40;;;0.90;99.90;;;;;;4971373;28;20039;-79
2022/12/12 03:09:10;;;;;;;42.58;19.90;;;0.70;99.90;;;;;;4963280;28;20765;-79
2022/12/12 03:11:46;;;;;;;51.20;22.23;;;0.70;99.90;;;;;;4985214;28;20027;-78
2022/12/12 03:14:34;;;;;;;46.10;21.02;;;0.60;99.90;;;;;;4962603;28;20030;-78
2022/12/12 03:17:07;;;;;;;33.10;15.80;;;0.60;99.90;;;;;;4969928;28;20027;-78
2022/12/12 03:19:52;;;;;;;45.60;20.25;;;0.60;99.90;;;;;;4972134;28;20038;-78
2022/12/12 03:22:31;;;;;;;35.88;17.60;;;0.70;99.90;;;;;;4987292;28;20038;-78
2022/12/12 03:25:03;;;;;;;45.85;20.50;;;0.70;99.90;;;;;;4955693;28;20034;-78
2022/12/12 03:27:38;;;;;;;26.60;13.55;;;0.60;99.90;;;;;;4970569;28;20065;-79
2022/12/12 03:30:10;;;;;;;35.63;16.17;;;0.60;99.90;;;;;;4988275;28;20038;-81
2022/12/12 03:32:59;;;;;;;38.70;17.20;;;0.60;99.90;;;;;;4969066;28;20037;-81
2022/12/12 03:35:26;;;;;;;23.98;12.23;;;0.60;99.90;;;;;;4950458;28;20045;-81
2022/12/12 03:37:56;;;;;;;29.27;14.30;;;0.70;99.90;;;;;;4989505;28;20062;-82
2022/12/12 03:40:53;;;;;;;25.98;12.98;;;0.70;99.90;;;;;;4954195;28;20034;-82
2022/12/12 03:43:29;;;;;;;35.13;17.08;;;0.70;99.90;;;;;;4983336;28;20035;-82
2022/12/12 03:46:13;;;;;;;25.52;12.45;;;0.70;99.90;;;;;;4953352;28;20038;-82
2022/12/12 03:48:41;;;;;;;40.08;18.25;;;0.70;99.90;;;;;;4971896;28;20058;-82
2022/12/12 03:51:22;;;;;;;21.98;11.32;;;0.70;99.90;;;;;;4972931;28;20049;-82
2022/12/12 03:54:07;;;;;;;22.63;11.00;;;0.70;99.90;;;;;;4970386;28;20035;-82
2022/12/12 03:56:47;;;;;;;33.83;15.45;;;0.70;99.90;;;;;;4970336;28;20065;-82
2022/12/12 03:59:43;;;;;;;23.63;11.93;;;0.70;99.90;;;;;;4983495;28;20509;-81
2022/12/12 04:02:29;;;;;;;43.30;21.07;;;0.70;99.90;;;;;;4972169;28;20031;-82
2022/12/12 04:05:16;;;;;;;47.15;22.35;;;0.70;99.90;;;;;;4973753;28;20023;-81
2022/12/12 04:08:07;;;;;;;28.65;14.15;;;0.60;99.90;;;;;;4991604;28;20043;-82
2022/12/12 04:13:29;;;;;;;49.03;21.63;;;0.60;99.90;;;;;;4957986;28;20118;-82
2022/12/12 04:16:11;;;;;;;47.85;22.35;;;0.60;99.90;;;;;;4973510;28;20034;-82
2022/12/12 04:18:42;;;;;;;49.08;23.08;;;0.50;99.90;;;;;;4964613;28;20033;-82
2022/12/12 04:24:45;;;;;;;33.58;15.65;;;0.60;99.90;;;;;;4976273;28;20039;-82
2022/12/12 04:27:18;;;;;;;44.58;19.40;;;0.50;99.90;;;;;;4970011;28;20466;-81
2022/12/12 04:29:49;;;;;;;29.20;14.50;;;0.50;99.90;;;;;;4988014;28;20125;-82
2022/12/12 04:32:30;;;;;;;28.55;15.07;;;0.50;99.90;;;;;;4964459;28;20042;-82
2022/12/12 04:35:39;;;;;;;31.20;14.55;;;0.50;99.90;;;;;;4982899;28;20061;-82
2022/12/12 04:38:16;;;;;;;37.38;17.58;;;0.60;99.90;;;;;;4954169;28;20037;-82
2022/12/12 04:40:44;;;;;;;25.33;14.27;;;0.60;99.90;;;;;;4971106;28;20622;-83
2022/12/12 04:43:13;;;;;;;25.58;12.50;;;0.50;99.90;;;;;;4969256;28;20031;-82
2022/12/12 04:45:41;;;;;;;25.25;12.35;;;0.50;99.90;;;;;;4966532;28;20031;-81
2022/12/12 04:48:07;;;;;;;23.95;11.85;;;0.40;99.90;;;;;;4972824;28;20049;-79
2022/12/12 04:50:33;;;;;;;34.40;14.48;;;0.40;99.90;;;;;;4969807;28;20034;-78
2022/12/12 04:52:59;;;;;;;27.25;12.15;;;0.40;99.90;;;;;;4969479;28;20034;-78
2022/12/12 04:55:32;;;;;;;44.05;19.55;;;0.40;99.90;;;;;;4953412;28;20034;-78
2022/12/12 04:57:58;;;;;;;35.03;17.70;;;0.30;99.90;;;;;;4955858;28;20031;-77
2022/12/12 05:00:24;;;;;;;26.83;13.00;;;0.20;99.90;;;;;;4950958;28;20374;-78
2022/12/12 05:03:33;;;;;;;23.08;12.55;;;0.20;99.90;;;;;;4949010;28;20038;-78
2022/12/12 05:06:00;;;;;;;32.63;14.30;;;0.20;99.90;;;;;;4946112;28;20047;-78
2022/12/12 05:08:28;;;;;;;28.13;12.90;;;0.30;99.90;;;;;;4948093;28;20038;-78
2022/12/12 05:10:54;;;;;;;33.17;15.38;;;0.30;99.90;;;;;;4982393;28;20026;-78
2022/12/12 05:13:23;;;;;;;33.97;16.80;;;0.30;99.90;;;;;;4970355;28;20037;-78
2022/12/12 05:15:51;;;;;;;33.60;15.90;;;0.20;99.90;;;;;;4939469;28;20053;-78
2022/12/12 05:18:17;;;;;;;28.50;13.68;;;0.20;99.90;;;;;;4969854;28;20370;-78
2022/12/12 05:20:42;;;;;;;43.67;20.92;;;0.20;99.90;;;;;;4969145;28;20041;-78
2022/12/12 05:23:08;;;;;;;39.83;18.30;;;0.20;99.90;;;;;;4952958;28;20104;-78
2022/12/12 05:25:33;;;;;;;40.47;17.75;;;0.30;99.90;;;;;;4956345;28;21084;-79
2022/12/12 05:27:59;;;;;;;32.33;16.55;;;0.20;99.90;;;;;;4973131;28;20112;-78
2022/12/12 05:30:24;;;;;;;38.58;18.88;;;0.20;99.90;;;;;;4955061;28;20058;-78
2022/12/12 05:32:50;;;;;;;39.70;18.88;;;0.20;99.90;;;;;;4936422;28;20030;-79
2022/12/12 05:35:16;;;;;;;30.38;16.10;;;0.10;99.90;;;;;;4936645;28;20580;-78
2022/12/12 05:37:42;;;;;;;38.50;18.63;;;0.10;99.90;;;;;;4953460;28;20755;-78
2022/12/12 05:40:08;;;;;;;36.25;18.55;;;0.20;99.90;;;;;;4986292;28;20041;-78
2022/12/12 05:42:34;;;;;;;36.28;18.15;;;0.20;99.90;;;;;;4981790;28;20420;-78
2022/12/12 05:44:59;;;;;;;35.22;17.65;;;0.20;99.90;;;;;;4974294;28;20030;-78
2022/12/12 05:47:25;;;;;;;39.38;17.75;;;0.20;99.90;;;;;;4954156;28;20038;-78
2022/12/12 05:49:51;;;;;;;32.45;15.35;;;0.20;99.90;;;;;;4953856;28;20038;-78
2022/12/12 05:52:17;;;;;;;29.42;13.90;;;0.20;99.90;;;;;;4967466;28;20023;-79
2022/12/12 05:54:42;;;;;;;29.25;15.60;;;0.30;99.90;;;;;;4983282;28;20038;-78
2022/12/12 05:57:08;;;;;;;30.15;14.77;;;0.40;99.90;;;;;;4956377;28;20029;-78
2022/12/12 05:59:34;;;;;;;37.72;18.10;;;0.40;99.90;;;;;;4966971;28;20048;-79
2022/12/12 06:01:59;;;;;;;39.03;17.73;;;0.30;99.90;;;;;;4955543;28;20054;-78
2022/12/12 06:04:25;;;;;;;49.80;22.45;;;0.20;99.90;;;;;;4986519;28;20470;-78
2022/12/12 06:06:50;;;;;;;41.65;20.38;;;0.10;99.90;;;;;;4950598;28;20056;-78
2022/12/12 06:09:17;;;;;;;46.60;21.38;;;-0.10;99.90;;;;;;4968226;28;20117;-78
2022/12/12 06:11:45;;;;;;;44.08;20.70;;;-0.20;99.90;;;;;;4970630;28;20114;-78
2022/12/12 06:14:11;;;;;;;48.78;20.73;;;-0.20;99.90;;;;;;4951183;28;20629;-79
2022/12/12 06:16:36;;;;;;;46.45;22.30;;;-0.20;99.90;;;;;;4972474;28;20030;-79
2022/12/12 06:19:02;;;;;;;44.60;19.65;;;-0.20;99.90;;;;;;4970714;28;20125;-78
2022/12/12 06:21:29;;;;;;;42.28;19.75;;;-0.10;99.90;;;;;;4968362;28;20543;-78
2022/12/12 06:23:54;;;;;;;46.35;20.17;;;0.00;99.90;;;;;;4936535;28;20125;-78
2022/12/12 06:26:20;;;;;;;40.60;19.63;;;-0.10;99.90;;;;;;4984733;28;20113;-78
2022/12/12 06:28:47;;;;;;;43.53;19.67;;;-0.10;99.90;;;;;;4983010;28;20023;-78
2022/12/12 06:31:13;;;;;;;45.50;21.27;;;-0.10;99.90;;;;;;4951774;28;20109;-78
2022/12/12 06:33:39;;;;;;;42.03;21.35;;;-0.30;99.90;;;;;;4975096;28;20502;-79
2022/12/12 06:36:06;;;;;;;45.42;22.38;;;-0.50;99.90;;;;;;4963843;28;20053;-79
2022/12/12 06:38:32;;;;;;;42.83;21.02;;;-0.60;99.90;;;;;;4969544;28;20089;-79
2022/12/12 06:40:57;;;;;;;42.78;20.65;;;-0.70;99.90;;;;;;4987060;28;20487;-79
2022/12/12 06:43:23;;;;;;;45.05;20.60;;;-0.70;99.90;;;;;;4971598;28;20129;-79
2022/12/12 06:45:49;;;;;;;49.17;22.10;;;-0.80;99.90;;;;;;4963677;28;20496;-78
2022/12/12 06:48:14;;;;;;;45.45;22.42;;;-0.80;99.90;;;;;;4969892;28;20030;-79
2022/12/12 06:50:41;;;;;;;48.15;22.23;;;-0.80;99.90;;;;;;4958846;28;20165;-78
2022/12/12 06:53:06;;;;;;;47.17;21.23;;;-0.80;99.90;;;;;;4974041;28;20088;-79
2022/12/12 06:55:32;;;;;;;49.75;21.05;;;-0.90;99.90;;;;;;4974668;28;20031;-79
2022/12/12 06:57:58;;;;;;;45.75;20.70;;;-0.90;99.90;;;;;;4971181;28;20040;-78
2022/12/12 07:00:23;;;;;;;52.22;21.55;;;-0.80;99.90;;;;;;4972008;28;20044;-78
2022/12/12 07:02:49;;;;;;;42.70;19.23;;;-0.90;99.90;;;;;;4970922;28;20372;-79
2022/12/12 07:05:14;;;;;;;45.85;21.92;;;-0.90;99.90;;;;;;4955629;28;20066;-79
2022/12/12 07:07:40;;;;;;;54.83;22.88;;;-1.00;99.90;;;;;;4944589;28;20050;-79
2022/12/12 07:10:06;;;;;;;50.00;21.52;;;-1.10;99.90;;;;;;4955723;28;20030;-79
2022/12/12 07:12:32;;;;;;;47.63;20.88;;;-1.20;99.90;;;;;;4979493;28;20084;-79
2022/12/12 07:14:57;;;;;;;42.72;20.30;;;-1.30;99.90;;;;;;4955671;28;20425;-79
2022/12/12 07:17:23;;;;;;;53.47;24.85;;;-1.40;99.90;;;;;;4969603;28;20045;-79
2022/12/12 07:19:48;;;;;;;52.08;22.40;;;-1.50;99.90;;;;;;4984411;28;20034;-79
2022/12/12 07:22:14;;;;;;;52.10;23.15;;;-1.50;99.90;;;;;;4987959;28;20557;-80
2022/12/12 07:24:40;;;;;;;39.03;19.67;;;-1.50;99.90;;;;;;4970387;28;20084;-80
2022/12/12 07:27:05;;;;;;;52.30;21.75;;;-1.50;99.90;;;;;;4969301;28;20387;-80
2022/12/12 07:29:32;;;;;;;39.53;17.23;;;-1.20;99.90;;;;;;4970050;28;20026;-79
2022/12/12 07:31:58;;;;;;;41.92;17.63;;;-1.20;99.90;;;;;;4940427;28;20026;-80
2022/12/12 07:34:23;;;;;;;53.05;22.33;;;-1.20;99.90;;;;;;4969729;28;20466;-80
2022/12/12 07:36:49;;;;;;;45.83;21.10;;;-1.10;99.90;;;;;;4970362;28;20022;-80
2022/12/12 07:39:15;;;;;;;44.22;19.85;;;-1.10;99.90;;;;;;4957873;28;20038;-80
2022/12/12 07:41:41;;;;;;;52.33;23.25;;;-1.20;99.90;;;;;;4970555;28;20062;-80
2022/12/12 07:44:06;;;;;;;53.25;23.70;;;-1.20;99.90;;;;;;4956986;28;20455;-80
2022/12/12 07:46:41;;;;;;;44.75;22.05;;;-1.10;99.90;;;;;;4971700;28;20037;-80
2022/12/12 07:49:07;;;;;;;43.33;23.03;;;-1.20;99.90;;;;;;4972869;28;20022;-80
2022/12/12 07:51:32;;;;;;;48.20;23.02;;;-1.20;99.90;;;;;;4971985;28;20379;-79
2022/12/12 07:54:07;;;;;;;44.63;19.25;;;-1.20;99.90;;;;;;4963138;28;20022;-79
2022/12/12 07:56:32;;;;;;;37.50;17.35;;;-1.30;99.90;;;;;;4951733;28;20030;-79
2022/12/12 07:58:58;;;;;;;44.22;20.77;;;-1.20;99.90;;;;;;4969265;28;20050;-79
2022/12/12 08:01:26;;;;;;;48.80;23.85;;;-1.10;99.90;;;;;;4954937;28;20027;-79
2022/12/12 08:03:52;;;;;;;43.53;21.52;;;-1.20;99.90;;;;;;4987257;28;20033;-79
2022/12/12 08:06:19;;;;;;;35.35;16.77;;;-1.20;99.90;;;;;;4962213;28;20034;-79
2022/12/12 08:08:45;;;;;;;46.60;21.10;;;-1.10;99.90;;;;;;4972855;28;20034;-79
2022/12/12 08:11:12;;;;;;;35.67;16.52;;;-1.10;99.90;;;;;;4972586;28;20027;-79
2022/12/12 08:13:37;;;;;;;41.65;18.50;;;-1.00;99.90;;;;;;4968969;28;20113;-78
2022/12/12 08:16:03;;;;;;;66.45;23.88;;;-1.00;99.90;;;;;;4970248;28;20076;-79
2022/12/12 08:18:29;;;;;;;48.63;20.52;;;-1.00;99.90;;;;;;4967282;28;20034;-79
2022/12/12 08:20:54;;;;;;;38.58;18.20;;;-1.00;99.90;;;;;;4950786;28;20089;-78
2022/12/12 08:23:20;;;;;;;45.58;21.25;;;-1.00;99.90;;;;;;4985245;28;20045;-78
2022/12/12 08:25:53;;;;;;;43.10;20.50;;;-1.00;99.90;;;;;;4953469;28;20034;-78
2022/12/12 08:28:18;;;;;;;38.17;18.20;;;-1.00;99.90;;;;;;4954392;28;21402;-78
2022/12/12 08:30:48;;;;;;;50.47;22.60;;;-1.00;99.90;;;;;;4971349;28;20443;-78
2022/12/12 08:33:13;;;;;;;43.97;19.00;;;-1.00;99.90;;;;;;4955285;28;20037;-78
2022/12/12 08:35:40;;;;;;;42.05;17.52;;;-1.00;99.90;;;;;;4973776;28;20429;-79
2022/12/12 08:38:05;;;;;;;45.10;21.90;;;-1.00;99.90;;;;;;4975132;28;20513;-79
2022/12/12 08:40:31;;;;;;;37.65;16.63;;;-1.00;99.90;;;;;;4970855;28;20109;-79
2022/12/12 08:42:57;;;;;;;37.33;16.80;;;-1.00;99.90;;;;;;4952966;28;20035;-79
2022/12/12 08:45:22;;;;;;;43.50;20.13;;;-0.90;99.90;;;;;;4989288;28;20483;-79
2022/12/12 08:47:48;;;;;;;33.30;15.55;;;-0.90;99.90;;;;;;4970332;28;20057;-79
2022/12/12 08:50:14;;;;;;;46.75;21.33;;;-0.90;99.90;;;;;;4955728;28;20030;-79
2022/12/12 08:52:39;;;;;;;44.63;20.55;;;-0.90;99.90;;;;;;4985790;28;20030;-78
2022/12/12 08:55:05;;;;;;;39.17;21.08;;;-0.90;99.90;;;;;;4989471;28;20029;-78
2022/12/12 08:57:30;;;;;;;29.52;14.50;;;-0.80;99.90;;;;;;4967646;28;20027;-78
2022/12/12 08:59:56;;;;;;;34.55;16.63;;;-0.80;99.90;;;;;;4981214;28;20522;-78
2022/12/12 09:02:22;;;;;;;34.55;16.42;;;-0.70;99.90;;;;;;4962547;28;20092;-78
2022/12/12 09:04:47;;;;;;;34.88;16.90;;;-0.60;99.90;;;;;;4970846;28;20080;-78
2022/12/12 09:07:13;;;;;;;43.90;20.75;;;-0.60;99.90;;;;;;4972380;28;20038;-78
2022/12/12 09:09:38;;;;;;;47.17;23.63;;;-0.60;99.90;;;;;;4984327;28;20026;-80
2022/12/12 09:12:05;;;;;;;45.67;22.17;;;-0.60;99.90;;;;;;4954163;28;20140;-78
2022/12/12 09:14:31;;;;;;;40.65;19.60;;;-0.60;99.90;;;;;;4968340;28;20761;-78
2022/12/12 09:16:57;;;;;;;42.08;20.33;;;-0.50;99.90;;;;;;4957254;28;20260;-79
2022/12/12 09:19:22;;;;;;;32.70;15.65;;;-0.50;99.90;;;;;;4966879;28;20482;-79
2022/12/12 09:21:48;;;;;;;30.95;15.13;;;-0.30;99.90;;;;;;4964626;28;20114;-79
2022/12/12 09:24:15;;;;;;;41.80;19.35;;;-0.10;99.90;;;;;;4930644;28;20509;-78
2022/12/12 09:26:41;;;;;;;38.35;19.40;;;-0.30;99.90;;;;;;4966782;28;20034;-78
2022/12/12 09:29:06;;;;;;;41.70;20.30;;;0.00;99.90;;;;;;4952511;28;20045;-78
2022/12/12 09:31:32;;;;;;;47.25;21.83;;;0.10;99.90;;;;;;4953671;28;20069;-79
2022/12/12 09:33:57;;;;;;;42.50;20.45;;;0.00;99.90;;;;;;4933574;28;20034;-78
2022/12/12 09:36:23;;;;;;;45.88;21.95;;;0.20;99.90;;;;;;4935409;28;20478;-79
2022/12/12 09:38:55;;;;;;;36.40;16.23;;;0.00;99.90;;;;;;4981014;28;20034;-79
2022/12/12 09:41:25;;;;;;;33.05;17.38;;;0.20;99.90;;;;;;4935798;28;20062;-78
2022/12/12 09:43:57;;;;;;;40.90;20.83;;;0.50;99.90;;;;;;4972134;28;20033;-78
2022/12/12 09:46:43;;;;;;;32.00;16.80;;;0.50;99.90;;;;;;4986948;28;20117;-79
2022/12/12 09:49:11;;;;;;;41.47;21.30;;;0.50;99.90;;;;;;4953916;28;20089;-79
2022/12/12 09:51:36;;;;;;;39.90;20.45;;;0.60;99.90;;;;;;4988280;28;20034;-79
2022/12/12 09:54:02;;;;;;;33.40;16.70;;;0.60;99.90;;;;;;4970124;28;20482;-79
2022/12/12 09:56:39;;;;;;;40.67;19.92;;;1.00;99.90;;;;;;4967617;28;20041;-79
2022/12/12 09:59:15;;;;;;;33.47;16.73;;;1.00;99.90;;;;;;4954182;28;20034;-79
2022/12/12 10:01:53;;;;;;;33.05;16.58;;;1.10;99.90;;;;;;4967682;28;20065;-79
2022/12/12 10:04:34;;;;;;;29.48;15.13;;;1.60;99.90;;;;;;4985420;28;20077;-79
2022/12/12 10:07:28;;;;;;;36.13;16.52;;;1.60;99.90;;;;;;4987452;28;20118;-79
2022/12/12 10:10:26;;;;;;;31.17;17.25;;;1.70;99.90;;;;;;4954236;28;20030;-79
2022/12/12 10:12:52;;;;;;;31.00;15.13;;;1.90;99.90;;;;;;4974498;28;20487;-79
2022/12/12 10:15:31;;;;;;;39.38;21.13;;;1.90;99.90;;;;;;4975893;28;20191;-78
2022/12/12 10:18:06;;;;;;;36.40;17.65;;;1.80;99.90;;;;;;4971967;28;20053;-78
2022/12/12 10:20:33;;;;;;;38.35;18.05;;;2.20;99.90;;;;;;4954295;28;20031;-79
2022/12/12 10:23:36;;;;;;;28.88;16.35;;;2.20;99.90;;;;;;4973896;28;20035;-78
2022/12/12 10:26:15;;;;;;;33.15;16.85;;;2.30;99.90;;;;;;4973306;28;20050;-77
2022/12/12 10:28:40;;;;;;;36.38;19.92;;;2.50;99.90;;;;;;4957148;28;20144;-78
2022/12/12 10:31:29;;;;;;;29.48;15.18;;;2.70;99.90;;;;;;4955764;28;20491;-78
2022/12/12 10:34:22;;;;;;;33.42;17.13;;;2.70;99.90;;;;;;4984004;28;20469;-78
2022/12/12 10:37:30;;;;;;;29.33;15.02;;;3.00;99.90;;;;;;4988228;28;20034;-78
2022/12/12 10:39:58;;;;;;;28.35;15.43;;;3.20;99.90;;;;;;4985032;28;20034;-78
2022/12/12 10:42:38;;;;;;;28.48;15.18;;;3.20;99.90;;;;;;4987336;28;20057;-78
2022/12/12 10:45:20;;;;;;;26.45;15.63;;;3.50;99.90;;;;;;4987592;28;20120;-78
2022/12/12 10:47:46;;;;;;;29.60;15.40;;;3.60;99.90;;;;;;4983346;28;20428;-78
2022/12/12 10:50:42;;;;;;;27.88;15.68;;;3.60;99.90;;;;;;4967197;28;20031;-78
2022/12/12 10:53:08;;;;;;;31.73;16.90;;;3.80;99.90;;;;;;4985954;28;20034;-78
2022/12/12 10:55:50;;;;;;;27.08;14.98;;;3.90;99.90;;;;;;4972285;28;20498;-78
2022/12/12 10:58:18;;;;;;;32.08;15.88;;;3.70;99.90;;;;;;4987033;28;20386;-78
2022/12/12 11:00:45;;;;;;;31.75;16.60;;;3.90;99.90;;;;;;4973366;28;20030;-78
2022/12/12 11:03:25;;;;;;;28.70;15.77;;;4.00;99.90;;;;;;4971659;28;20460;-78
2022/12/12 11:05:51;;;;;;;34.15;16.67;;;3.80;99.90;;;;;;4965092;28;20474;-79
2022/12/12 11:08:28;;;;;;;33.45;16.40;;;3.80;99.90;;;;;;4956668;28;20035;-78
2022/12/12 11:11:12;;;;;;;29.95;17.42;;;4.10;99.90;;;;;;4976150;28;20026;-79
2022/12/12 11:13:59;;;;;;;29.92;16.27;;;3.90;99.90;;;;;;4988305;28;20026;-78
2022/12/12 11:16:40;;;;;;;33.92;15.98;;;4.20;99.90;;;;;;4968943;28;20425;-79
2022/12/12 11:19:06;;;;;;;29.48;16.75;;;4.00;99.90;;;;;;4971659;28;20038;-79
2022/12/12 11:21:33;;;;;;;39.65;18.75;;;3.70;99.90;;;;;;4972954;28;20041;-78
2022/12/12 11:23:59;;;;;;;34.72;17.23;;;3.90;99.90;;;;;;4972663;28;20022;-78
2022/12/12 11:26:26;;;;;;;32.25;17.08;;;3.70;99.90;;;;;;4957570;28;20084;-80
2022/12/12 11:28:58;;;;;;;31.25;16.75;;;4.10;99.90;;;;;;4985932;28;20553;-79
2022/12/12 11:31:25;;;;;;;32.13;15.15;;;4.30;99.90;;;;;;4955929;28;20031;-79
2022/12/12 11:33:53;;;;;;;27.92;14.77;;;4.70;99.90;;;;;;4969084;28;20448;-79
2022/12/12 11:36:22;;;;;;;26.23;13.90;;;4.90;99.90;;;;;;4986040;28;20031;-79
2022/12/12 11:38:53;;;;;;;24.35;13.98;;;5.00;99.90;;;;;;4973655;28;20033;-79
2022/12/12 11:41:19;;;;;;;24.58;13.82;;;5.10;99.90;;;;;;4974521;28;20578;-78
2022/12/12 11:43:47;;;;;;;28.38;12.98;;;5.30;99.90;;;;;;4970659;28;20129;-79
2022/12/12 11:46:12;;;;;;;24.08;13.73;;;5.10;99.90;;;;;;4988693;28;20058;-78
2022/12/12 11:48:50;;;;;;;25.45;14.52;;;5.30;99.90;;;;;;4983994;28;20574;-79
2022/12/12 11:51:42;;;;;;;29.25;15.65;;;5.30;99.90;;;;;;4966596;28;20042;-78
2022/12/12 11:54:11;;;;;;;27.13;15.60;;;5.20;99.90;;;;;;4967164;28;20085;-78
2022/12/12 11:57:02;;;;;;;26.88;13.75;;;5.40;99.90;;;;;;4988558;28;20038;-78
2022/12/12 11:59:39;;;;;;;22.83;13.70;;;5.40;99.90;;;;;;4986861;28;20066;-79
2022/12/12 12:02:41;;;;;;;25.30;13.23;;;5.20;99.90;;;;;;4972460;28;20382;-78
2022/12/12 12:05:26;;;;;;;25.45;12.27;;;5.10;99.90;;;;;;4987170;28;20053;-78
2022/12/12 12:08:11;;;;;;;24.23;11.20;;;5.30;99.90;;;;;;4968241;28;20120;-78
2022/12/12 12:11:11;;;;;;;22.92;13.27;;;5.60;99.90;;;;;;4990045;28;20445;-79
2022/12/12 12:14:00;;;;;;;31.92;14.43;;;5.60;99.90;;;;;;4983544;28;20023;-79
2022/12/12 12:16:52;;;;;;;23.88;11.73;;;5.50;99.90;;;;;;4967230;28;20046;-79
2022/12/12 12:19:21;;;;;;;25.38;12.93;;;5.60;99.90;;;;;;4985123;28;20359;-78
2022/12/12 12:22:08;;;;;;;17.75;10.45;;;5.40;99.90;;;;;;4987256;28;20062;-79
2022/12/12 12:25:01;;;;;;;24.17;12.30;;;5.40;99.90;;;;;;4976091;28;20304;-78
2022/12/12 12:27:49;;;;;;;23.67;14.45;;;5.10;99.90;;;;;;4968452;28;20031;-80
2022/12/12 12:30:24;;;;;;;30.73;16.27;;;4.80;99.90;;;;;;4940649;28;20060;-79
2022/12/12 12:33:18;;;;;;;22.23;12.85;;;4.30;99.90;;;;;;4971081;28;20821;-79
2022/12/12 12:35:58;;;;;;;21.63;13.00;;;5.20;99.90;;;;;;4988339;28;20042;-78
2022/12/12 12:38:25;;;;;;;27.95;13.70;;;5.50;99.90;;;;;;4984101;28;20478;-78
2022/12/12 12:41:09;;;;;;;27.17;15.85;;;4.50;99.90;;;;;;4976893;28;20719;-79
2022/12/12 12:43:53;;;;;;;26.35;15.00;;;4.60;99.90;;;;;;4983875;28;20030;-79
2022/12/12 12:46:55;;;;;;;27.25;15.45;;;4.10;99.90;;;;;;4965250;28;20039;-79
2022/12/12 12:49:32;;;;;;;20.23;10.23;;;3.90;99.90;;;;;;4984724;28;20026;-79
2022/12/12 12:52:01;;;;;;;20.60;10.82;;;4.50;99.90;;;;;;4965618;28;20031;-79
2022/12/12 12:54:37;;;;;;;19.63;10.25;;;5.40;99.90;;;;;;4952028;28;20038;-79
2022/12/12 12:57:09;;;;;;;;;;;5.60;99.90;;;;;;4951786;28;20104;-79
2022/12/12 12:59:40;;;;;;;19.67;10.57;;;5.80;99.90;;;;;;4984404;28;20004;-79
2022/12/12 13:02:26;;;;;;;22.88;11.15;;;6.50;99.90;;;;;;4970796;28;20492;-79
2022/12/12 13:05:09;;;;;;;17.93;9.77;;;6.60;99.90;;;;;;4965001;28;20054;-78
2022/12/12 13:07:37;;;;;;;18.98;10.93;;;6.60;99.90;;;;;;4969134;28;20061;-78
2022/12/12 13:10:19;;;;;;;18.92;10.30;;;6.50;99.90;;;;;;4986068;28;20041;-78